createdAt,value
2022-09-28T00:01:15.026Z,17.60
2022-09-28T00:03:43.531Z,17.70
2022-09-28T00:06:14.969Z,17.70
2022-09-28T00:08:44.628Z,17.70
2022-09-28T00:11:15.350Z,17.70
2022-09-28T00:13:44.632Z,17.70
2022-09-28T00:16:16.071Z,17.70
2022-09-28T00:18:45.639Z,17.70
2022-09-28T00:21:15.754Z,17.70
2022-09-28T00:23:59.876Z,17.70
2022-09-28T00:26:28.625Z,17.70
2022-09-28T00:28:59.209Z,17.60
2022-09-28T00:31:29.281Z,17.60
2022-09-28T00:33:58.097Z,17.70
2022-09-28T00:36:27.023Z,17.70
2022-09-28T00:38:57.465Z,17.70
2022-09-28T00:41:26.296Z,17.70
2022-09-28T00:43:54.966Z,17.70
2022-09-28T00:46:29.791Z,17.70
2022-09-28T00:49:03.157Z,17.70
2022-09-28T00:51:33.006Z,17.70
2022-09-28T00:54:05.301Z,17.60
2022-09-28T00:56:36.848Z,17.50
2022-09-28T00:59:05.781Z,17.50
2022-09-28T01:01:33.961Z,17.50
2022-09-28T01:04:04.937Z,17.50
2022-09-28T01:06:37.122Z,17.50
2022-09-28T01:09:09.850Z,17.50
2022-09-28T01:11:39.894Z,17.40
2022-09-28T01:14:13.213Z,17.50
2022-09-28T01:16:47.495Z,17.40
2022-09-28T01:19:37.232Z,17.40
2022-09-28T01:22:17.717Z,17.40
2022-09-28T01:24:48.395Z,17.30
2022-09-28T01:27:21.650Z,17.30
2022-09-28T01:29:56.578Z,17.30
2022-09-28T01:32:35.901Z,17.30
2022-09-28T01:35:08.880Z,17.30
2022-09-28T01:37:42.686Z,17.20
2022-09-28T01:40:13.273Z,17.20
2022-09-28T01:42:46.195Z,17.20
2022-09-28T01:45:21.280Z,17.20
2022-09-28T01:47:51.959Z,17.20
2022-09-28T01:50:25.454Z,17.20
2022-09-28T01:52:57.547Z,17.20
2022-09-28T01:55:32.376Z,17.20
2022-09-28T01:58:06.603Z,17.20
2022-09-28T02:00:37.172Z,17.20
2022-09-28T02:03:10.062Z,17.10
2022-09-28T02:05:40.737Z,17.10
2022-09-28T02:08:14.032Z,17.10
2022-09-28T02:10:45.623Z,17.10
2022-09-28T02:13:20.713Z,17.10
2022-09-28T02:15:53.124Z,17.10
2022-09-28T02:18:21.458Z,17.00
2022-09-28T02:20:57.384Z,17.00
2022-09-28T02:23:27.947Z,17.00
2022-09-28T02:26:03.024Z,17.00
2022-09-28T02:28:32.747Z,16.90
2022-09-28T02:31:01.994Z,16.80
2022-09-28T02:33:35.288Z,16.80
2022-09-28T02:36:04.700Z,16.80
2022-09-28T02:38:33.197Z,16.80
2022-09-28T02:41:06.427Z,16.80
2022-09-28T02:43:45.515Z,16.80
2022-09-28T02:46:25.672Z,16.80
2022-09-28T02:49:24.390Z,16.80
2022-09-28T02:52:18.158Z,16.80
2022-09-28T02:55:19.256Z,16.70
2022-09-28T02:58:16.499Z,16.70
2022-09-28T03:00:53.046Z,16.70
2022-09-28T03:03:29.675Z,16.70
2022-09-28T03:06:03.364Z,16.70
2022-09-28T03:08:35.872Z,16.70
2022-09-28T03:11:08.764Z,16.70
2022-09-28T03:13:37.173Z,16.70
2022-09-28T03:16:15.459Z,16.70
2022-09-28T03:18:43.807Z,16.70
2022-09-28T03:21:13.955Z,16.60
2022-09-28T03:23:42.436Z,16.60
2022-09-28T03:26:12.874Z,16.60
2022-09-28T03:28:41.378Z,16.60
2022-09-28T03:31:09.827Z,16.60
2022-09-28T03:33:39.406Z,16.60
2022-09-28T03:36:08.813Z,16.60
2022-09-28T03:38:37.110Z,16.50
2022-09-28T03:41:05.320Z,16.50
2022-09-28T03:43:33.520Z,16.50
2022-09-28T03:46:03.218Z,16.50
2022-09-28T03:48:33.839Z,16.40
2022-09-28T03:51:05.927Z,16.40
2022-09-28T03:53:34.831Z,16.40
2022-09-28T03:56:07.383Z,16.40
2022-09-28T03:58:36.079Z,16.40
2022-09-28T04:01:05.643Z,16.40
2022-09-28T04:03:34.052Z,16.40
2022-09-28T04:06:03.695Z,16.40
2022-09-28T04:08:32.350Z,16.40
2022-09-28T04:11:01.528Z,16.40
2022-09-28T04:13:31.378Z,16.40
2022-09-28T04:16:01.081Z,16.40
2022-09-28T04:18:29.989Z,16.30
2022-09-28T04:21:06.805Z,16.30
2022-09-28T04:23:36.029Z,16.30
2022-09-28T04:26:04.920Z,16.30
2022-09-28T04:28:50.715Z,16.30
2022-09-28T04:31:20.325Z,16.30
2022-09-28T04:33:48.694Z,16.30
2022-09-28T04:36:19.717Z,16.30
2022-09-28T04:38:53.246Z,16.30
2022-09-28T04:41:22.908Z,16.30
2022-09-28T04:43:51.417Z,16.30
2022-09-28T04:46:20.240Z,16.30
2022-09-28T04:48:48.470Z,16.30
2022-09-28T04:51:18.098Z,16.30
2022-09-28T04:53:46.319Z,16.30
2022-09-28T04:56:15.718Z,16.30
2022-09-28T04:58:46.918Z,16.30
2022-09-28T05:01:23.519Z,16.30
2022-09-28T05:03:52.368Z,16.30
2022-09-28T05:06:22.968Z,16.30
2022-09-28T05:08:51.141Z,16.30
2022-09-28T05:11:21.438Z,16.30
2022-09-28T05:13:50.457Z,16.30
2022-09-28T05:16:20.459Z,16.30
2022-09-28T05:18:48.991Z,16.30
2022-09-28T05:21:19.852Z,16.40
2022-09-28T05:23:49.696Z,16.30
2022-09-28T05:26:18.102Z,16.30
2022-09-28T05:28:46.312Z,16.10
2022-09-28T05:31:14.529Z,16.10
2022-09-28T05:33:42.906Z,16.00
2022-09-28T05:36:11.791Z,16.00
2022-09-28T05:38:39.960Z,16.00
2022-09-28T05:41:09.594Z,16.00
2022-09-28T05:43:38.540Z,16.00
2022-09-28T05:46:07.238Z,16.00
2022-09-28T05:48:35.459Z,15.90
2022-09-28T05:51:03.727Z,15.90
2022-09-28T05:53:31.938Z,15.80
2022-09-28T05:56:00.619Z,15.80
2022-09-28T05:58:30.537Z,15.90
2022-09-28T06:00:58.980Z,15.80
2022-09-28T06:03:27.296Z,15.80
2022-09-28T06:05:55.947Z,15.80
2022-09-28T06:08:24.145Z,15.70
2022-09-28T06:10:52.281Z,15.70
2022-09-28T06:13:20.785Z,15.70
2022-09-28T06:15:50.340Z,15.60
2022-09-28T06:18:18.666Z,15.60
2022-09-28T06:20:46.890Z,15.60
2022-09-28T06:23:15.402Z,15.60
2022-09-28T06:25:43.702Z,15.60
2022-09-28T06:28:13.503Z,15.50
2022-09-28T06:30:42.944Z,15.60
2022-09-28T06:33:15.039Z,15.60
2022-09-28T06:35:43.470Z,15.60
2022-09-28T06:38:12.158Z,15.60
2022-09-28T06:40:40.328Z,15.60
2022-09-28T06:43:11.551Z,15.70
2022-09-28T06:45:40.300Z,15.60
2022-09-28T06:48:09.094Z,15.50
2022-09-28T06:50:40.727Z,15.40
2022-09-28T06:53:11.931Z,15.30
2022-09-28T06:55:41.161Z,15.30
2022-09-28T06:58:12.379Z,15.40
2022-09-28T07:00:41.363Z,15.40
2022-09-28T07:03:13.476Z,15.30
2022-09-28T07:05:45.643Z,15.10
2022-09-28T07:08:15.871Z,15.10
2022-09-28T07:10:45.199Z,15.10
2022-09-28T07:13:41.688Z,15.10
2022-09-28T07:16:03.307Z,15.10
2022-09-28T07:18:31.477Z,15.00
2022-09-28T07:21:02.860Z,15.00
2022-09-28T07:23:31.711Z,15.00
2022-09-28T07:26:07.499Z,15.00
2022-09-28T07:28:40.502Z,15.00
2022-09-28T07:31:09.662Z,15.00
2022-09-28T07:33:38.062Z,15.00
2022-09-28T07:36:07.939Z,15.00
2022-09-28T07:38:38.293Z,15.00
2022-09-28T07:41:11.387Z,14.90
2022-09-28T07:43:40.227Z,15.00
2022-09-28T07:46:11.970Z,15.00
2022-09-28T07:48:46.067Z,15.10
2022-09-28T07:51:17.796Z,15.10
2022-09-28T07:53:45.975Z,15.30
2022-09-28T07:56:17.324Z,15.40
2022-09-28T07:58:45.386Z,15.40
2022-09-28T08:01:15.334Z,15.50
2022-09-28T08:03:45.367Z,15.50
2022-09-28T08:06:17.195Z,15.40
2022-09-28T08:08:45.941Z,15.50
2022-09-28T08:11:15.309Z,15.60
2022-09-28T08:13:44.043Z,15.70
2022-09-28T08:16:13.915Z,15.80
2022-09-28T08:18:42.251Z,15.90
2022-09-28T08:21:28.804Z,15.90
2022-09-28T08:23:58.818Z,16.00
2022-09-28T08:26:27.068Z,15.90
2022-09-28T08:28:55.234Z,15.80
2022-09-28T08:31:23.561Z,15.90
2022-09-28T08:33:53.716Z,16.00
2022-09-28T08:36:22.173Z,15.90
2022-09-28T08:38:50.457Z,15.90
2022-09-28T08:41:28.371Z,15.90
2022-09-28T08:44:06.845Z,16.00
2022-09-28T08:46:38.848Z,16.10
2022-09-28T08:49:25.057Z,16.20
2022-09-28T08:51:59.891Z,16.10
2022-09-28T08:54:36.558Z,16.20
2022-09-28T08:57:12.301Z,16.30
2022-09-28T08:59:52.290Z,16.40
2022-09-28T09:02:27.105Z,16.50
2022-09-28T09:04:57.022Z,16.50
2022-09-28T09:07:49.956Z,16.50
2022-09-28T09:10:39.688Z,16.60
2022-09-28T09:13:27.748Z,16.60
2022-09-28T09:16:03.943Z,16.50
2022-09-28T09:18:38.114Z,16.50
2022-09-28T09:21:14.612Z,16.50
2022-09-28T09:23:53.910Z,16.60
2022-09-28T09:26:28.145Z,16.60
2022-09-28T09:29:11.614Z,16.70
2022-09-28T09:31:53.146Z,16.70
2022-09-28T09:34:42.591Z,16.80
2022-09-28T09:37:26.651Z,16.80
2022-09-28T09:40:19.013Z,16.80
2022-09-28T09:42:58.182Z,16.80
2022-09-28T09:45:44.238Z,16.80
2022-09-28T09:48:18.942Z,16.80
2022-09-28T09:50:50.825Z,16.90
2022-09-28T09:53:28.912Z,16.90
2022-09-28T09:56:02.293Z,16.80
2022-09-28T09:58:35.387Z,16.90
2022-09-28T10:01:09.072Z,17.00
2022-09-28T10:03:43.982Z,16.90
2022-09-28T10:06:16.868Z,16.90
2022-09-28T10:08:49.324Z,17.10
2022-09-28T10:11:21.634Z,17.10
2022-09-28T10:13:49.818Z,17.10
2022-09-28T10:16:20.326Z,17.20
2022-09-28T10:18:49.822Z,17.30
2022-09-28T10:21:21.577Z,17.40
2022-09-28T10:23:56.289Z,17.40
2022-09-28T10:26:29.367Z,17.40
2022-09-28T10:29:01.239Z,17.40
2022-09-28T10:31:42.186Z,17.40
2022-09-28T10:34:14.253Z,17.50
2022-09-28T10:36:52.663Z,17.50
2022-09-28T10:39:34.336Z,17.50
2022-09-28T10:42:04.659Z,17.60
2022-09-28T10:44:35.237Z,17.60
2022-09-28T10:47:16.241Z,17.60
2022-09-28T10:49:48.703Z,17.70
2022-09-28T10:52:40.119Z,17.70
2022-09-28T10:55:33.576Z,17.80
2022-09-28T10:58:27.531Z,17.90
2022-09-28T11:01:05.080Z,17.90
2022-09-28T11:03:35.094Z,18.00
2022-09-28T11:06:06.652Z,18.00
2022-09-28T11:08:39.346Z,18.10
2022-09-28T11:11:10.622Z,18.10
2022-09-28T11:13:47.846Z,18.10
2022-09-28T11:16:25.870Z,18.20
2022-09-28T11:18:55.818Z,18.30
2022-09-28T11:21:26.633Z,18.40
2022-09-28T11:24:01.272Z,18.50
2022-09-28T11:26:36.877Z,18.70
2022-09-28T11:29:07.445Z,18.60
2022-09-28T11:31:36.304Z,18.50
2022-09-28T11:34:14.521Z,18.50
2022-09-28T11:37:01.666Z,18.50
2022-09-28T11:39:41.896Z,18.50
2022-09-28T11:42:25.388Z,18.50
2022-09-28T11:44:58.773Z,18.50
2022-09-28T11:47:50.507Z,18.50
2022-09-28T11:50:28.672Z,18.60
2022-09-28T11:53:07.271Z,18.60
2022-09-28T11:55:42.745Z,18.70
2022-09-28T11:58:18.029Z,18.60
2022-09-28T12:00:52.740Z,18.60
2022-09-28T12:03:27.145Z,18.70
2022-09-28T12:06:02.058Z,18.60
2022-09-28T12:08:33.180Z,18.80
2022-09-28T12:11:07.145Z,18.80
2022-09-28T12:13:39.939Z,18.80
2022-09-28T12:16:38.450Z,18.80
2022-09-28T12:19:04.506Z,18.80
2022-09-28T12:21:41.940Z,18.90
2022-09-28T12:24:17.460Z,18.90
2022-09-28T12:26:50.968Z,18.90
2022-09-28T12:29:24.274Z,18.90
2022-09-28T12:31:59.679Z,19.00
2022-09-28T12:34:28.118Z,19.00
2022-09-28T12:37:13.283Z,19.00
2022-09-28T12:40:02.167Z,19.00
2022-09-28T12:42:53.171Z,19.10
2022-09-28T12:46:06.640Z,19.10
2022-09-28T12:49:51.583Z,19.00
2022-09-28T12:51:53.851Z,19.00
2022-09-28T12:54:41.179Z,19.00
2022-09-28T12:57:27.300Z,19.10
2022-09-28T13:00:04.338Z,19.20
2022-09-28T13:03:07.201Z,19.20
2022-09-28T13:06:05.568Z,19.20
2022-09-28T13:08:44.485Z,19.30
2022-09-28T13:11:24.154Z,19.40
2022-09-28T13:13:59.823Z,19.40
2022-09-28T13:16:36.108Z,19.50
2022-09-28T13:19:13.059Z,19.50
2022-09-28T13:21:47.627Z,19.60
2022-09-28T13:24:33.544Z,19.60
2022-09-28T13:27:11.490Z,19.60
2022-09-28T13:29:40.455Z,19.50
2022-09-28T13:32:11.686Z,19.60
2022-09-28T13:34:40.881Z,19.60
2022-09-28T13:37:19.959Z,19.60
2022-09-28T13:39:53.204Z,19.60
2022-09-28T13:43:00.855Z,19.60
2022-09-28T13:45:54.690Z,19.60
2022-09-28T13:48:28.604Z,19.60
2022-09-28T13:51:22.390Z,19.60
2022-09-28T13:54:19.561Z,19.50
2022-09-28T13:56:57.403Z,19.60
2022-09-28T13:59:28.252Z,19.60
2022-09-28T14:02:06.812Z,19.60
2022-09-28T14:04:57.227Z,19.60
2022-09-28T14:10:20.888Z,19.70
2022-09-28T14:12:51.356Z,19.80
2022-09-28T14:15:43.411Z,19.80
2022-09-28T14:18:28.665Z,19.90
2022-09-28T14:21:08.280Z,19.90
2022-09-28T14:23:59.992Z,19.80
2022-09-28T14:27:05.161Z,19.90
2022-09-28T14:29:35.229Z,19.80
2022-09-28T14:32:22.339Z,19.80
2022-09-28T14:34:58.905Z,19.80
2022-09-28T14:37:49.204Z,19.80
2022-09-28T14:40:39.659Z,19.80
2022-09-28T14:43:27.839Z,19.80
2022-09-28T14:46:30.502Z,19.90
2022-09-28T14:49:01.766Z,19.90
2022-09-28T14:52:04.456Z,19.90
2022-09-28T14:54:55.285Z,20.00
2022-09-28T14:57:27.147Z,19.90
2022-09-28T14:59:59.496Z,19.90
2022-09-28T15:02:32.475Z,19.90
2022-09-28T15:05:10.939Z,19.90
2022-09-28T15:07:49.551Z,19.90
2022-09-28T15:10:27.915Z,19.90
2022-09-28T15:12:57.242Z,19.90
2022-09-28T15:15:33.027Z,19.90
2022-09-28T15:18:27.606Z,19.80
2022-09-28T15:20:56.778Z,19.80
2022-09-28T15:23:28.548Z,19.70
2022-09-28T15:25:56.979Z,19.70
2022-09-28T15:28:26.071Z,19.70
2022-09-28T15:31:00.909Z,19.70
2022-09-28T15:33:48.685Z,19.60
2022-09-28T15:36:21.894Z,19.60
2022-09-28T15:38:57.595Z,19.60
2022-09-28T15:41:26.560Z,19.60
2022-09-28T15:44:08.489Z,19.60
2022-09-28T15:46:38.566Z,19.60
2022-09-28T15:49:08.387Z,19.50
2022-09-28T15:51:52.214Z,19.50
2022-09-28T15:54:24.878Z,19.50
2022-09-28T15:56:55.146Z,19.50
2022-09-28T15:59:30.072Z,19.50
2022-09-28T16:02:13.315Z,19.50
2022-09-28T16:04:48.046Z,19.50
2022-09-28T16:07:32.200Z,19.50
2022-09-28T16:10:27.513Z,19.50
2022-09-28T16:12:59.476Z,19.50
2022-09-28T16:15:30.462Z,19.50
2022-09-28T16:18:01.712Z,19.50
2022-09-28T16:20:32.299Z,19.50
2022-09-28T16:23:06.561Z,19.50
2022-09-28T16:25:40.400Z,19.50
2022-09-28T16:28:30.389Z,19.50
2022-09-28T16:31:04.293Z,19.50
2022-09-28T16:33:41.806Z,19.50
2022-09-28T16:36:15.760Z,19.50
2022-09-28T16:38:46.946Z,19.50
2022-09-28T16:41:20.485Z,19.50
2022-09-28T16:43:49.252Z,19.50
2022-09-28T16:46:21.292Z,19.50
2022-09-28T16:48:51.335Z,19.50
2022-09-28T16:51:21.355Z,19.40
2022-09-28T16:54:07.244Z,19.40
2022-09-28T16:56:38.089Z,19.40
2022-09-28T16:59:06.347Z,19.30
2022-09-28T17:01:42.049Z,19.30
2022-09-28T17:04:10.268Z,19.30
2022-09-28T17:06:38.854Z,19.20
2022-09-28T17:09:07.963Z,19.20
2022-09-28T17:11:38.001Z,19.20
2022-09-28T17:14:06.122Z,19.20
2022-09-28T17:17:06.153Z,19.20
2022-09-28T17:19:24.152Z,19.20
2022-09-28T17:21:53.961Z,19.20
2022-09-28T17:24:22.683Z,19.20
2022-09-28T17:26:53.751Z,19.10
2022-09-28T17:29:22.099Z,19.10
2022-09-28T17:31:51.345Z,19.10
2022-09-28T17:34:21.457Z,19.10
2022-09-28T17:36:52.366Z,19.10
2022-09-28T17:39:25.065Z,19.10
2022-09-28T17:41:57.637Z,19.10
2022-09-28T17:44:28.784Z,19.10
2022-09-28T17:46:57.466Z,19.10
2022-09-28T17:49:25.672Z,19.10
2022-09-28T17:51:57.530Z,19.20
2022-09-28T17:54:27.313Z,19.10
2022-09-28T17:56:56.851Z,19.10
2022-09-28T17:59:28.607Z,19.10
2022-09-28T18:02:02.158Z,19.10
2022-09-28T18:04:51.369Z,19.10
2022-09-28T18:07:22.770Z,19.10
2022-09-28T18:09:56.923Z,19.10
2022-09-28T18:12:29.499Z,19.10
2022-09-28T18:15:01.118Z,19.10
2022-09-28T18:17:30.673Z,19.10
2022-09-28T18:20:01.824Z,19.10
2022-09-28T18:22:32.599Z,19.10
2022-09-28T18:25:01.963Z,19.10
2022-09-28T18:27:35.168Z,19.10
2022-09-28T18:30:06.483Z,19.00
2022-09-28T18:32:38.506Z,19.00
2022-09-28T18:35:11.201Z,19.00
2022-09-28T18:37:42.732Z,19.00
2022-09-28T18:40:12.787Z,18.90
2022-09-28T18:42:46.102Z,18.90
2022-09-28T18:45:18.437Z,18.90
2022-09-28T18:47:49.226Z,18.90
2022-09-28T18:50:20.227Z,18.90
2022-09-28T18:52:52.828Z,18.80
2022-09-28T18:55:22.904Z,18.80
2022-09-28T18:57:56.881Z,18.70
2022-09-28T19:00:28.302Z,18.70
2022-09-28T19:02:58.610Z,18.70
2022-09-28T19:05:29.269Z,18.70
2022-09-28T19:07:59.615Z,18.70
2022-09-28T19:10:28.081Z,18.60
2022-09-28T19:13:02.425Z,18.60
2022-09-28T19:15:34.634Z,18.60
2022-09-28T19:18:05.812Z,18.50
2022-09-28T19:20:35.398Z,18.50
2022-09-28T19:23:07.448Z,18.50
2022-09-28T19:25:40.224Z,18.40
2022-09-28T19:28:11.307Z,18.40
2022-09-28T19:30:45.037Z,18.40
2022-09-28T19:33:17.550Z,18.40
2022-09-28T19:35:56.458Z,18.30
2022-09-28T19:38:25.900Z,18.30
2022-09-28T19:40:56.124Z,18.30
2022-09-28T19:43:31.914Z,18.30
2022-09-28T19:46:07.339Z,18.20
2022-09-28T19:48:39.725Z,18.20
2022-09-28T19:51:12.182Z,18.20
2022-09-28T19:53:41.210Z,18.20
2022-09-28T19:56:11.253Z,18.20
2022-09-28T19:58:46.914Z,18.20
2022-09-28T20:01:17.364Z,18.10
2022-09-28T20:03:49.493Z,18.20
2022-09-28T20:06:18.878Z,18.10
2022-09-28T20:08:49.837Z,18.10
2022-09-28T20:11:21.722Z,18.10
2022-09-28T20:13:59.992Z,18.10
2022-09-28T20:16:30.086Z,18.10
2022-09-28T20:19:03.370Z,18.10
2022-09-28T20:21:33.142Z,18.00
2022-09-28T20:24:05.193Z,18.00
2022-09-28T20:26:39.585Z,18.00
2022-09-28T20:29:10.721Z,18.00
2022-09-28T20:31:41.036Z,18.00
2022-09-28T20:34:14.772Z,18.00
2022-09-28T20:36:43.153Z,18.00
2022-09-28T20:39:12.159Z,18.00
2022-09-28T20:41:41.959Z,18.00
2022-09-28T20:44:12.483Z,18.00
2022-09-28T20:46:43.746Z,18.00
2022-09-28T20:49:14.976Z,18.00
2022-09-28T20:51:47.616Z,18.00
2022-09-28T20:54:17.610Z,17.90
2022-09-28T20:56:49.709Z,17.90
2022-09-28T20:59:24.402Z,17.90
2022-09-28T21:01:55.230Z,17.90
2022-09-28T21:04:27.537Z,17.90
2022-09-28T21:06:55.742Z,17.80
2022-09-28T21:09:25.020Z,17.80
2022-09-28T21:11:53.927Z,17.80
2022-09-28T21:14:24.034Z,17.80
2022-09-28T21:16:52.366Z,17.80
2022-09-28T21:19:24.078Z,17.80
2022-09-28T21:21:56.950Z,17.80
2022-09-28T21:24:28.689Z,17.80
2022-09-28T21:26:59.487Z,17.70
2022-09-28T21:29:31.121Z,17.70
2022-09-28T21:32:01.933Z,17.70
2022-09-28T21:34:32.704Z,17.70
2022-09-28T21:37:02.532Z,17.60
2022-09-28T21:39:33.115Z,17.70
2022-09-28T21:42:01.277Z,17.70
2022-09-28T21:44:36.943Z,17.60
2022-09-28T21:47:08.071Z,17.60
2022-09-28T21:49:38.706Z,17.70
2022-09-28T21:52:08.364Z,17.60
2022-09-28T21:54:38.163Z,17.60
2022-09-28T21:57:06.443Z,17.60
2022-09-28T21:59:36.157Z,17.70
2022-09-28T22:02:05.814Z,17.60
2022-09-28T22:04:34.031Z,17.60
2022-09-28T22:07:02.190Z,17.60
2022-09-28T22:09:30.551Z,17.60
2022-09-28T22:11:58.645Z,17.60
2022-09-28T22:14:27.311Z,17.50
2022-09-28T22:16:56.810Z,17.40
2022-09-28T22:19:24.932Z,17.40
2022-09-28T22:21:53.081Z,17.40
2022-09-28T22:24:21.320Z,17.40
2022-09-28T22:26:49.497Z,17.30
2022-09-28T22:29:18.169Z,17.30
2022-09-28T22:31:46.245Z,17.30
2022-09-28T22:34:15.839Z,17.30
2022-09-28T22:36:44.136Z,17.30
2022-09-28T22:39:12.487Z,17.30
2022-09-28T22:41:40.796Z,17.30
2022-09-28T22:44:09.006Z,17.30
2022-09-28T22:46:37.270Z,17.30
2022-09-28T22:49:05.675Z,17.20
2022-09-28T22:51:35.300Z,17.30
2022-09-28T22:54:03.478Z,17.30
2022-09-28T22:56:31.994Z,17.30
2022-09-28T22:59:00.391Z,17.30
2022-09-28T23:01:30.475Z,17.20
2022-09-28T23:03:59.527Z,17.20
2022-09-28T23:06:30.716Z,17.20
2022-09-28T23:09:00.496Z,17.20
2022-09-28T23:11:29.394Z,17.20
2022-09-28T23:13:59.225Z,17.20
2022-09-28T23:16:28.314Z,17.20
2022-09-28T23:18:57.002Z,17.20
2022-09-28T23:21:27.472Z,17.20
2022-09-28T23:23:57.219Z,17.20
2022-09-28T23:26:28.901Z,17.20
2022-09-28T23:28:57.364Z,17.10
2022-09-28T23:31:27.990Z,17.10
2022-09-28T23:33:59.481Z,17.10
2022-09-28T23:36:27.915Z,17.10
2022-09-28T23:38:56.311Z,17.10
2022-09-28T23:41:24.502Z,17.10
2022-09-28T23:43:54.150Z,17.10
2022-09-28T23:46:22.581Z,17.00
2022-09-28T23:48:50.952Z,17.00
2022-09-28T23:51:19.482Z,17.00
2022-09-28T23:53:47.973Z,16.90
2022-09-28T23:56:16.273Z,16.90
2022-09-28T23:58:44.447Z,16.80
